Time;durP1;ratioP1;P1;durP2;ratioP2;P2;SDS_P1;SDS_P2;PMS_P1;PMS_P2;Temp;Humidity;BMP_temperature;BMP_pressure;BME280_temperature;BME280_humidity;BME280_pressure;Samples;Min_cycle;Max_cycle;Signal;HPM_P1;HPM_P2
2024/04/22 00:00:02;;;;;;;15.05;9.02;;;;;;;;;;5462586;26;20031;-64
2024/04/22 00:02:34;;;;;;;14.77;9.52;;;;;;;;;;5430862;26;20039;-65
2024/04/22 00:05:01;;;;;;;14.30;8.55;;;;;;;;;;5425375;26;20112;-64
2024/04/22 00:07:27;;;;;;;12.90;8.40;;;;;;;;;;5430946;26;20035;-64
2024/04/22 00:09:54;;;;;;;12.75;8.07;;;;;;;;;;5462097;26;20043;-64
2024/04/22 00:12:20;;;;;;;14.75;8.82;;;;;;;;;;5451105;26;20035;-64
2024/04/22 00:14:46;;;;;;;13.95;8.35;;;;;;;;;;5452443;26;20081;-64
2024/04/22 00:17:12;;;;;;;14.38;8.82;;;;;;;;;;5413050;26;20023;-64
2024/04/22 00:19:38;;;;;;;15.85;8.45;;;;;;;;;;5453788;26;20039;-64
2024/04/22 00:22:04;;;;;;;13.85;8.10;;;;;;;;;;5454553;26;20758;-64
2024/04/22 00:24:31;;;;;;;12.15;7.35;;;;;;;;;;5456163;26;20042;-64
2024/04/22 00:26:57;;;;;;;11.27;7.55;;;;;;;;;;5421678;26;20035;-64
2024/04/22 00:29:23;;;;;;;12.38;7.50;;;;;;;;;;5457743;26;20031;-64
2024/04/22 00:31:49;;;;;;;11.63;7.18;;;;;;;;;;5455323;26;20030;-64
2024/04/22 00:34:15;;;;;;;11.63;7.13;;;;;;;;;;5424873;26;20039;-64
2024/04/22 00:36:43;;;;;;;12.88;7.30;;;;;;;;;;5425526;26;20027;-64
2024/04/22 00:39:09;;;;;;;14.52;7.80;;;;;;;;;;5464265;26;20039;-64
2024/04/22 00:41:35;;;;;;;11.18;7.35;;;;;;;;;;5457700;26;20031;-64
2024/04/22 00:44:02;;;;;;;9.90;6.80;;;;;;;;;;5449841;26;20021;-64
2024/04/22 00:46:28;;;;;;;13.45;7.43;;;;;;;;;;5462411;26;20018;-64
2024/04/22 00:48:54;;;;;;;11.82;7.45;;;;;;;;;;5464926;26;20026;-64
2024/04/22 00:51:22;;;;;;;11.20;7.07;;;;;;;;;;5425116;26;20042;-64
2024/04/22 00:53:49;;;;;;;11.02;7.15;;;;;;;;;;5428932;26;20023;-64
2024/04/22 00:56:17;;;;;;;11.40;6.72;;;;;;;;;;5432010;26;20667;-64
2024/04/22 00:58:45;;;;;;;10.85;6.93;;;;;;;;;;5453575;26;20031;-64
2024/04/22 01:01:12;;;;;;;12.13;6.35;;;;;;;;;;5401197;26;20031;-64
2024/04/22 01:03:39;;;;;;;10.10;6.18;;;;;;;;;;5467972;26;20039;-64
2024/04/22 01:06:05;;;;;;;12.00;7.10;;;;;;;;;;5427753;26;21543;-64
2024/04/22 01:08:31;;;;;;;9.88;6.28;;;;;;;;;;5457560;26;20026;-64
2024/04/22 01:10:57;;;;;;;10.65;6.45;;;;;;;;;;5419273;26;20501;-65
2024/04/22 01:13:23;;;;;;;8.43;6.10;;;;;;;;;;5425655;26;20031;-64
2024/04/22 01:15:49;;;;;;;10.82;6.38;;;;;;;;;;5469640;26;20026;-65
2024/04/22 01:18:19;;;;;;;9.43;6.75;;;;;;;;;;5463998;26;20025;-64
2024/04/22 01:20:45;;;;;;;10.07;6.18;;;;;;;;;;5451059;26;20035;-64
2024/04/22 01:23:11;;;;;;;8.88;5.75;;;;;;;;;;5454331;26;20121;-65
2024/04/22 01:25:42;;;;;;;10.50;6.47;;;;;;;;;;5452311;26;20571;-64
2024/04/22 01:28:08;;;;;;;13.25;6.57;;;;;;;;;;5456824;26;20031;-65
2024/04/22 01:30:35;;;;;;;10.02;6.57;;;;;;;;;;5453073;26;20030;-65
2024/04/22 01:33:01;;;;;;;10.23;6.65;;;;;;;;;;5428950;26;20049;-65
2024/04/22 01:35:27;;;;;;;9.48;6.22;;;;;;;;;;5463018;26;20494;-64
2024/04/22 01:37:53;;;;;;;10.00;6.00;;;;;;;;;;5455619;26;20023;-65
2024/04/22 01:40:19;;;;;;;12.18;6.90;;;;;;;;;;5469866;26;20030;-64
2024/04/22 01:42:45;;;;;;;10.32;6.13;;;;;;;;;;5457945;26;20027;-65
2024/04/22 01:45:11;;;;;;;11.32;5.75;;;;;;;;;;5418402;26;20458;-65
2024/04/22 01:47:38;;;;;;;10.52;5.95;;;;;;;;;;5462397;26;20091;-65
2024/04/22 01:50:06;;;;;;;9.88;6.90;;;;;;;;;;5471909;26;20023;-63
2024/04/22 01:52:32;;;;;;;8.70;5.50;;;;;;;;;;5461043;26;20039;-66
2024/04/22 01:54:58;;;;;;;10.27;5.93;;;;;;;;;;5461310;26;20026;-64
2024/04/22 01:57:24;;;;;;;10.48;6.55;;;;;;;;;;5461449;26;20026;-64
2024/04/22 01:59:50;;;;;;;10.77;5.88;;;;;;;;;;5457661;26;20489;-65
2024/04/22 02:02:16;;;;;;;9.63;6.18;;;;;;;;;;5461641;26;20050;-65
2024/04/22 02:04:42;;;;;;;8.30;5.20;;;;;;;;;;5463011;26;20024;-65
2024/04/22 02:07:08;;;;;;;8.45;5.55;;;;;;;;;;5454719;26;20033;-65
2024/04/22 02:09:34;;;;;;;10.65;6.15;;;;;;;;;;5461403;26;20026;-64
2024/04/22 02:12:00;;;;;;;11.88;6.32;;;;;;;;;;5468849;26;20501;-65
2024/04/22 02:14:27;;;;;;;9.63;5.57;;;;;;;;;;5464718;26;20035;-65
2024/04/22 02:16:54;;;;;;;9.45;5.50;;;;;;;;;;5454984;26;20031;-65
2024/04/22 02:19:20;;;;;;;8.82;5.63;;;;;;;;;;5458516;26;20039;-63
2024/04/22 02:21:46;;;;;;;8.90;5.93;;;;;;;;;;5453099;26;20026;-64
2024/04/22 02:24:12;;;;;;;11.60;6.18;;;;;;;;;;5453277;26;20532;-65
2024/04/22 02:26:38;;;;;;;9.75;5.65;;;;;;;;;;5435783;26;20026;-65
2024/04/22 02:29:04;;;;;;;9.43;5.85;;;;;;;;;;5450103;26;20031;-64
2024/04/22 02:31:30;;;;;;;8.63;6.18;;;;;;;;;;5455030;26;20034;-66
2024/04/22 02:33:56;;;;;;;10.32;5.88;;;;;;;;;;5449622;26;20039;-64
2024/04/22 02:36:22;;;;;;;13.35;6.43;;;;;;;;;;5451988;26;20027;-64
2024/04/22 02:38:48;;;;;;;8.23;5.35;;;;;;;;;;5452011;26;20385;-64
2024/04/22 02:41:14;;;;;;;9.02;5.70;;;;;;;;;;5460410;26;20023;-64
2024/04/22 02:43:40;;;;;;;9.30;6.00;;;;;;;;;;5458833;26;20039;-64
2024/04/22 02:46:06;;;;;;;11.35;6.30;;;;;;;;;;5450451;26;20038;-65
2024/04/22 02:48:32;;;;;;;10.00;5.82;;;;;;;;;;5470855;26;20042;-64
2024/04/22 02:51:02;;;;;;;10.85;6.35;;;;;;;;;;5457911;26;20473;-65
2024/04/22 02:53:28;;;;;;;;;;;;;;;;;;5457787;26;20031;-67
2024/04/22 02:55:55;;;;;;;9.13;5.47;;;;;;;;;;5458125;26;19931;-65
2024/04/22 02:58:21;;;;;;;10.65;5.68;;;;;;;;;;5460854;26;20738;-65
2024/04/22 03:00:48;;;;;;;8.82;5.88;;;;;;;;;;5450551;26;20461;-64
2024/04/22 03:03:15;;;;;;;9.07;5.93;;;;;;;;;;5467485;26;20023;-64
2024/04/22 03:05:41;;;;;;;9.10;5.57;;;;;;;;;;5464713;26;20046;-65
2024/04/22 03:08:08;;;;;;;8.85;5.45;;;;;;;;;;5450036;26;20454;-63
2024/04/22 03:10:38;;;;;;;9.63;6.15;;;;;;;;;;5463906;26;20435;-65
2024/04/22 03:13:08;;;;;;;;;;;;;;;;;;5464309;26;20381;-64
2024/04/22 03:15:35;;;;;;;9.75;5.90;;;;;;;;;;5460400;26;19955;-63
2024/04/22 03:18:02;;;;;;;8.98;6.00;;;;;;;;;;5453048;26;20041;-64
2024/04/22 03:20:28;;;;;;;9.65;6.15;;;;;;;;;;5459418;26;20381;-64
2024/04/22 03:22:54;;;;;;;9.30;5.57;;;;;;;;;;5448721;26;20026;-64
2024/04/22 03:25:20;;;;;;;9.20;5.50;;;;;;;;;;5457798;26;20030;-64
2024/04/22 03:27:46;;;;;;;10.77;5.85;;;;;;;;;;5468110;26;20054;-64
2024/04/22 03:30:12;;;;;;;9.55;5.75;;;;;;;;;;5457592;26;20044;-64
2024/04/22 03:32:38;;;;;;;9.20;6.25;;;;;;;;;;5456332;26;20388;-66
2024/04/22 03:35:04;;;;;;;9.10;5.97;;;;;;;;;;5421982;26;20026;-64
2024/04/22 03:37:30;;;;;;;11.13;6.40;;;;;;;;;;5466257;26;20042;-65
2024/04/22 03:39:56;;;;;;;11.85;6.65;;;;;;;;;;5455048;26;20038;-64
2024/04/22 03:42:23;;;;;;;10.27;6.45;;;;;;;;;;5463617;26;20019;-65
2024/04/22 03:44:49;;;;;;;9.48;5.70;;;;;;;;;;5450490;26;20065;-64
2024/04/22 03:50:01;;;;;;;12.13;6.57;;;;;;;;;;5462336;26;20039;-64
2024/04/22 03:52:27;;;;;;;13.02;7.10;;;;;;;;;;5421914;26;20035;-65
2024/04/22 03:54:54;;;;;;;10.63;6.40;;;;;;;;;;5429474;26;20382;-64
2024/04/22 03:57:20;;;;;;;11.52;6.50;;;;;;;;;;5470812;26;20045;-64
2024/04/22 03:59:46;;;;;;;12.65;5.80;;;;;;;;;;5459200;26;20457;-64
2024/04/22 04:02:12;;;;;;;10.95;6.82;;;;;;;;;;5458254;26;20027;-65
2024/04/22 04:04:38;;;;;;;11.48;6.55;;;;;;;;;;5452436;26;20038;-65
2024/04/22 04:07:04;;;;;;;11.23;6.43;;;;;;;;;;5465371;26;20023;-65
2024/04/22 04:09:31;;;;;;;9.20;5.68;;;;;;;;;;5453846;26;20026;-65
2024/04/22 04:11:57;;;;;;;8.55;5.35;;;;;;;;;;5458142;26;20381;-65
2024/04/22 04:14:23;;;;;;;10.10;6.20;;;;;;;;;;5459007;26;20023;-64
2024/04/22 04:16:49;;;;;;;9.43;5.80;;;;;;;;;;5430719;26;20038;-64
2024/04/22 04:19:15;;;;;;;14.05;6.00;;;;;;;;;;5433084;26;20035;-65
2024/04/22 04:21:41;;;;;;;10.88;6.03;;;;;;;;;;5451044;26;20035;-64
2024/04/22 04:24:07;;;;;;;10.00;5.60;;;;;;;;;;5469310;26;20031;-64
2024/04/22 04:26:33;;;;;;;8.15;5.15;;;;;;;;;;5455217;26;20027;-65
2024/04/22 04:29:00;;;;;;;9.98;6.20;;;;;;;;;;5459081;26;20038;-65
2024/04/22 04:31:26;;;;;;;10.05;6.35;;;;;;;;;;5467590;26;20490;-65
2024/04/22 04:33:52;;;;;;;9.02;5.55;;;;;;;;;;5455717;26;20035;-65
2024/04/22 04:36:18;;;;;;;12.82;6.63;;;;;;;;;;5443503;26;20032;-65
2024/04/22 04:38:44;;;;;;;9.13;5.60;;;;;;;;;;5430243;26;20037;-65
2024/04/22 04:41:10;;;;;;;10.68;5.47;;;;;;;;;;5462073;26;20478;-64
2024/04/22 04:43:36;;;;;;;8.75;5.50;;;;;;;;;;5426796;26;20479;-64
2024/04/22 04:46:02;;;;;;;10.75;5.93;;;;;;;;;;5457910;26;20398;-66
2024/04/22 04:48:28;;;;;;;9.90;5.72;;;;;;;;;;5456451;26;20046;-65
2024/04/22 04:50:54;;;;;;;9.82;5.75;;;;;;;;;;5458582;26;20038;-64
2024/04/22 04:53:21;;;;;;;10.88;6.13;;;;;;;;;;5458933;26;20502;-65
2024/04/22 04:55:48;;;;;;;11.48;6.38;;;;;;;;;;5450591;26;20368;-64
2024/04/22 04:58:15;;;;;;;9.93;5.40;;;;;;;;;;5459238;26;20038;-64
2024/04/22 05:00:41;;;;;;;9.77;6.05;;;;;;;;;;5462781;26;20378;-64
2024/04/22 05:03:08;;;;;;;9.68;5.68;;;;;;;;;;5463434;26;20019;-64
2024/04/22 05:05:34;;;;;;;9.75;5.32;;;;;;;;;;5452641;26;20034;-64
2024/04/22 05:08:00;;;;;;;10.68;5.70;;;;;;;;;;5452191;26;20031;-63
2024/04/22 05:10:26;;;;;;;9.25;5.38;;;;;;;;;;5461971;26;20053;-62
2024/04/22 05:12:52;;;;;;;11.05;5.60;;;;;;;;;;5467428;26;20034;-62
2024/04/22 05:15:18;;;;;;;10.77;5.63;;;;;;;;;;5451518;26;20498;-62
2024/04/22 05:17:44;;;;;;;6.78;4.80;;;;;;;;;;5453440;26;20026;-62
2024/04/22 05:20:10;;;;;;;9.27;5.55;;;;;;;;;;5454463;26;20499;-64
2024/04/22 05:22:36;;;;;;;12.25;6.13;;;;;;;;;;5463670;26;20031;-62
2024/04/22 05:25:03;;;;;;;11.27;5.88;;;;;;;;;;5455829;26;20034;-62
2024/04/22 05:27:31;;;;;;;7.78;5.38;;;;;;;;;;5458280;26;20046;-62
2024/04/22 05:29:57;;;;;;;10.43;6.03;;;;;;;;;;5457631;26;20053;-62
2024/04/22 05:32:23;;;;;;;8.32;5.07;;;;;;;;;;5455476;26;20030;-62
2024/04/22 05:37:34;;;;;;;13.32;5.57;;;;;;;;;;5468640;26;20113;-62
2024/04/22 05:40:00;;;;;;;8.48;5.68;;;;;;;;;;5458334;26;20103;-63
2024/04/22 05:42:26;;;;;;;9.00;4.85;;;;;;;;;;5460838;26;20062;-63
2024/04/22 05:44:52;;;;;;;11.48;5.32;;;;;;;;;;5461820;26;20383;-62
2024/04/22 05:47:18;;;;;;;10.85;6.15;;;;;;;;;;5460945;26;20026;-63
2024/04/22 05:49:44;;;;;;;8.20;5.80;;;;;;;;;;5464093;26;20038;-62
2024/04/22 05:52:10;;;;;;;8.18;5.85;;;;;;;;;;5428015;26;20038;-66
2024/04/22 05:54:38;;;;;;;11.38;6.35;;;;;;;;;;5459502;26;20034;-65
2024/04/22 05:57:04;;;;;;;9.38;5.90;;;;;;;;;;5455726;26;20026;-66
2024/04/22 05:59:30;;;;;;;10.50;6.55;;;;;;;;;;5460647;26;20026;-66
2024/04/22 06:01:56;;;;;;;8.45;5.63;;;;;;;;;;5438637;26;20026;-65
2024/04/22 06:04:22;;;;;;;8.93;6.45;;;;;;;;;;5473452;26;20004;-67
2024/04/22 06:06:48;;;;;;;9.10;6.35;;;;;;;;;;5469458;26;20788;-67
2024/04/22 06:09:14;;;;;;;10.57;5.90;;;;;;;;;;5471161;26;20022;-66
2024/04/22 06:11:41;;;;;;;12.45;6.03;;;;;;;;;;5476213;26;20505;-66
2024/04/22 06:14:08;;;;;;;12.20;7.07;;;;;;;;;;5454036;26;20046;-67
2024/04/22 06:16:35;;;;;;;8.98;5.75;;;;;;;;;;5455885;26;20035;-67
2024/04/22 06:19:01;;;;;;;9.25;5.25;;;;;;;;;;5459193;26;20026;-66
2024/04/22 06:21:28;;;;;;;8.27;5.70;;;;;;;;;;5433456;26;20718;-66
2024/04/22 06:23:54;;;;;;;9.65;5.30;;;;;;;;;;5458504;26;20045;-66
2024/04/22 06:26:20;;;;;;;8.45;5.50;;;;;;;;;;5459415;26;20035;-66
2024/04/22 06:28:46;;;;;;;9.73;5.70;;;;;;;;;;5455325;26;20025;-67
2024/04/22 06:31:12;;;;;;;8.68;5.30;;;;;;;;;;5455016;26;20039;-67
2024/04/22 06:33:42;;;;;;;8.38;5.50;;;;;;;;;;5424892;26;20030;-67
2024/04/22 06:36:09;;;;;;;;;;;;;;;;;;5457399;26;20022;-68
2024/04/22 06:38:35;;;;;;;11.18;6.90;;;;;;;;;;5463894;26;19948;-66
2024/04/22 06:41:01;;;;;;;10.13;6.65;;;;;;;;;;5460552;26;20030;-67
2024/04/22 06:43:27;;;;;;;10.45;6.28;;;;;;;;;;5453484;26;20027;-66
2024/04/22 06:45:53;;;;;;;9.85;6.03;;;;;;;;;;5461901;26;20026;-66
2024/04/22 06:48:19;;;;;;;11.63;6.18;;;;;;;;;;5468846;26;20392;-67
2024/04/22 06:50:47;;;;;;;12.43;6.95;;;;;;;;;;5461722;26;20115;-66
2024/04/22 06:53:13;;;;;;;12.25;6.32;;;;;;;;;;5464760;26;20026;-67
2024/04/22 06:55:41;;;;;;;11.35;5.75;;;;;;;;;;5462395;26;20031;-66
2024/04/22 06:58:07;;;;;;;13.15;6.68;;;;;;;;;;5465324;26;20055;-67
2024/04/22 07:00:33;;;;;;;9.73;5.95;;;;;;;;;;5460472;26;20019;-66
2024/04/22 07:02:59;;;;;;;10.30;5.32;;;;;;;;;;5467134;26;20385;-67
2024/04/22 07:05:25;;;;;;;9.45;5.95;;;;;;;;;;5455643;26;20387;-65
2024/04/22 07:07:51;;;;;;;10.23;6.03;;;;;;;;;;5471478;26;20035;-65
2024/04/22 07:10:17;;;;;;;8.93;5.68;;;;;;;;;;5476517;26;20030;-63
2024/04/22 07:12:43;;;;;;;9.10;5.57;;;;;;;;;;5428032;26;20030;-65
2024/04/22 07:15:12;;;;;;;9.70;5.72;;;;;;;;;;5469942;26;20042;-66
2024/04/22 07:17:39;;;;;;;11.18;6.10;;;;;;;;;;5455351;26;20063;-67
2024/04/22 07:20:05;;;;;;;9.23;5.60;;;;;;;;;;5462915;26;20035;-67
2024/04/22 07:22:35;;;;;;;12.63;7.22;;;;;;;;;;5472027;26;20038;-67
2024/04/22 07:25:01;;;;;;;15.52;7.57;;;;;;;;;;5428073;26;20034;-64
2024/04/22 07:27:27;;;;;;;10.75;5.90;;;;;;;;;;5462995;26;20624;-64
2024/04/22 07:29:54;;;;;;;10.93;6.80;;;;;;;;;;5461408;26;20038;-65
2024/04/22 07:32:21;;;;;;;10.00;5.70;;;;;;;;;;5466258;26;20474;-64
2024/04/22 07:34:47;;;;;;;12.55;7.35;;;;;;;;;;5461967;26;20042;-65
2024/04/22 07:37:28;;;;;;;11.27;6.45;;;;;;;;;;5464197;26;20022;-65
2024/04/22 07:40:07;;;;;;;11.73;5.25;;;;;;;;;;5459563;26;20270;-65
2024/04/22 07:42:33;;;;;;;11.88;7.45;;;;;;;;;;5464221;26;20038;-66
2024/04/22 07:44:59;;;;;;;10.05;6.45;;;;;;;;;;5483855;26;20027;-63
2024/04/22 07:47:25;;;;;;;8.43;5.32;;;;;;;;;;5484965;26;20030;-66
2024/04/22 07:49:51;;;;;;;9.63;5.70;;;;;;;;;;5474617;26;20034;-65
2024/04/22 07:52:18;;;;;;;11.93;6.95;;;;;;;;;;5459704;26;20026;-66
2024/04/22 07:54:44;;;;;;;9.25;5.47;;;;;;;;;;5445223;26;20045;-64
2024/04/22 07:57:10;;;;;;;7.90;5.10;;;;;;;;;;5467298;26;20038;-66
2024/04/22 07:59:37;;;;;;;8.40;5.40;;;;;;;;;;5470882;26;20030;-66
2024/04/22 08:02:03;;;;;;;11.73;6.60;;;;;;;;;;5482754;26;20042;-66
2024/04/22 08:04:29;;;;;;;10.90;6.07;;;;;;;;;;5465088;26;20544;-65
2024/04/22 08:07:02;;;;;;;9.07;5.00;;;;;;;;;;5473354;26;20029;-65
2024/04/22 08:09:28;;;;;;;8.05;4.75;;;;;;;;;;5468761;26;20054;-66
2024/04/22 08:11:55;;;;;;;7.38;4.72;;;;;;;;;;5464618;26;20038;-65
2024/04/22 08:14:21;;;;;;;6.55;4.38;;;;;;;;;;5458753;26;20035;-66
2024/04/22 08:16:47;;;;;;;6.65;4.95;;;;;;;;;;5469963;26;20027;-65
2024/04/22 08:19:14;;;;;;;6.97;4.75;;;;;;;;;;5455847;26;20042;-65
2024/04/22 08:21:40;;;;;;;10.88;6.13;;;;;;;;;;5473561;26;20035;-66
2024/04/22 08:24:06;;;;;;;10.90;6.00;;;;;;;;;;5477153;26;20022;-65
2024/04/22 08:26:32;;;;;;;11.98;7.03;;;;;;;;;;5475999;26;20038;-65
2024/04/22 08:28:58;;;;;;;10.18;5.07;;;;;;;;;;5478110;26;20035;-65
2024/04/22 08:31:24;;;;;;;9.15;5.03;;;;;;;;;;5448736;26;20489;-66
2024/04/22 08:33:54;;;;;;;9.68;5.20;;;;;;;;;;5479223;26;20030;-67
2024/04/22 08:36:23;;;;;;;10.52;5.40;;;;;;;;;;5472613;26;20039;-65
2024/04/22 08:38:50;;;;;;;7.88;4.57;;;;;;;;;;5479312;26;20046;-65
2024/04/22 08:41:18;;;;;;;11.18;5.32;;;;;;;;;;5473541;26;20042;-66
2024/04/22 08:43:45;;;;;;;15.65;7.53;;;;;;;;;;5465053;26;20497;-65
2024/04/22 08:46:11;;;;;;;9.95;5.80;;;;;;;;;;5480771;26;20380;-65
2024/04/22 08:48:38;;;;;;;7.80;4.90;;;;;;;;;;5474484;26;20039;-66
2024/04/22 08:51:07;;;;;;;11.82;6.80;;;;;;;;;;5466992;26;20026;-66
2024/04/22 08:53:33;;;;;;;11.30;6.68;;;;;;;;;;5468693;26;20058;-66
2024/04/22 08:56:00;;;;;;;9.27;5.95;;;;;;;;;;5437180;26;20030;-65
2024/04/22 08:58:26;;;;;;;7.32;3.78;;;;;;;;;;5477998;26;20033;-65
2024/04/22 09:00:52;;;;;;;7.45;4.85;;;;;;;;;;5470499;26;20464;-65
2024/04/22 09:03:18;;;;;;;10.05;5.90;;;;;;;;;;5469567;26;20037;-65
2024/04/22 09:05:44;;;;;;;10.45;6.45;;;;;;;;;;5480431;26;20027;-65
2024/04/22 09:08:11;;;;;;;7.07;4.53;;;;;;;;;;5469385;26;20023;-64
2024/04/22 09:10:38;;;;;;;8.25;5.60;;;;;;;;;;5474933;26;20045;-65
2024/04/22 09:13:04;;;;;;;6.97;4.03;;;;;;;;;;5479852;26;20025;-65
2024/04/22 09:15:30;;;;;;;10.50;5.40;;;;;;;;;;5473691;26;20212;-65
2024/04/22 09:17:57;;;;;;;7.57;4.88;;;;;;;;;;5446072;26;20033;-65
2024/04/22 09:20:24;;;;;;;8.73;4.90;;;;;;;;;;5476846;26;20026;-65
2024/04/22 09:22:51;;;;;;;7.93;4.97;;;;;;;;;;5474666;26;20030;-67
2024/04/22 09:25:18;;;;;;;6.45;4.32;;;;;;;;;;5438731;26;20026;-64
2024/04/22 09:27:49;;;;;;;9.35;4.70;;;;;;;;;;5478817;26;20023;-64
2024/04/22 09:30:17;;;;;;;7.40;4.20;;;;;;;;;;5475402;26;20373;-65
2024/04/22 09:32:46;;;;;;;7.80;4.67;;;;;;;;;;5475568;26;20045;-65
2024/04/22 09:35:16;;;;;;;6.40;4.10;;;;;;;;;;5463476;26;20050;-65
2024/04/22 09:37:42;;;;;;;7.43;4.63;;;;;;;;;;5469243;26;20031;-65
2024/04/22 09:40:12;;;;;;;9.27;4.68;;;;;;;;;;5472151;26;20033;-65
2024/04/22 09:42:43;;;;;;;7.22;4.53;;;;;;;;;;5472113;26;20034;-66
2024/04/22 09:45:10;;;;;;;10.38;4.32;;;;;;;;;;5461845;26;20026;-65
2024/04/22 09:47:39;;;;;;;6.30;4.28;;;;;;;;;;5476431;26;20026;-66
2024/04/22 09:50:06;;;;;;;9.55;4.55;;;;;;;;;;5463228;26;20034;-66
2024/04/22 09:52:32;;;;;;;7.25;4.43;;;;;;;;;;5479637;26;20030;-66
2024/04/22 09:55:01;;;;;;;5.75;3.80;;;;;;;;;;5471860;26;20383;-66
2024/04/22 09:57:29;;;;;;;6.10;4.07;;;;;;;;;;5484832;26;20031;-65
2024/04/22 09:59:55;;;;;;;5.68;4.07;;;;;;;;;;5474124;26;20026;-67
2024/04/22 10:02:21;;;;;;;9.45;4.55;;;;;;;;;;5471073;26;20034;-66
2024/04/22 10:04:48;;;;;;;7.03;3.80;;;;;;;;;;5461531;26;20580;-66
2024/04/22 10:07:14;;;;;;;6.15;4.18;;;;;;;;;;5466466;26;20026;-66
2024/04/22 10:09:40;;;;;;;5.40;3.83;;;;;;;;;;5476467;26;20022;-65
2024/04/22 10:12:07;;;;;;;6.47;3.80;;;;;;;;;;5480986;26;20030;-66
2024/04/22 10:14:33;;;;;;;8.57;3.50;;;;;;;;;;5476109;26;20478;-66
2024/04/22 10:17:01;;;;;;;4.10;3.38;;;;;;;;;;5473178;26;20022;-65
2024/04/22 10:19:29;;;;;;;5.25;3.53;;;;;;;;;;5446781;26;20409;-66
2024/04/22 10:21:59;;;;;;;4.10;3.20;;;;;;;;;;5476576;26;20025;-65
2024/04/22 10:24:35;;;;;;;4.88;2.90;;;;;;;;;;5470690;26;20490;-66
2024/04/22 10:27:11;;;;;;;5.85;3.22;;;;;;;;;;5474401;26;20034;-65
2024/04/22 10:29:37;;;;;;;5.28;3.03;;;;;;;;;;5474413;26;20039;-66
2024/04/22 10:32:03;;;;;;;5.57;3.85;;;;;;;;;;5470182;26;20030;-65
2024/04/22 10:34:30;;;;;;;5.50;3.38;;;;;;;;;;5473752;26;20106;-67
2024/04/22 10:36:56;;;;;;;4.57;3.17;;;;;;;;;;5471207;26;20035;-65
2024/04/22 10:39:23;;;;;;;4.65;3.63;;;;;;;;;;5477198;26;20026;-68
2024/04/22 10:41:50;;;;;;;3.28;2.55;;;;;;;;;;5467359;26;20042;-67
2024/04/22 10:44:16;;;;;;;3.95;2.80;;;;;;;;;;5442496;26;20390;-66
2024/04/22 10:46:42;;;;;;;5.85;3.45;;;;;;;;;;5481362;26;20042;-67
2024/04/22 10:49:09;;;;;;;5.25;2.95;;;;;;;;;;5433212;26;20046;-66
2024/04/22 10:51:35;;;;;;;4.50;3.28;;;;;;;;;;5468165;26;20030;-66
2024/04/22 10:54:01;;;;;;;4.45;2.83;;;;;;;;;;5482948;26;20022;-67
2024/04/22 10:56:27;;;;;;;4.25;2.95;;;;;;;;;;5478959;26;20054;-66
2024/04/22 10:58:53;;;;;;;3.83;2.80;;;;;;;;;;5471286;26;20038;-66
2024/04/22 11:01:22;;;;;;;4.28;3.35;;;;;;;;;;5476925;26;20034;-66
2024/04/22 11:03:49;;;;;;;3.85;2.97;;;;;;;;;;5459127;26;20498;-66
2024/04/22 11:06:15;;;;;;;4.90;2.92;;;;;;;;;;5462394;26;20023;-67
2024/04/22 11:08:43;;;;;;;4.07;3.00;;;;;;;;;;5481316;26;20029;-65
2024/04/22 11:11:10;;;;;;;4.28;2.55;;;;;;;;;;5470595;26;20030;-65
2024/04/22 11:13:37;;;;;;;4.47;3.08;;;;;;;;;;5472192;26;20027;-67
2024/04/22 11:16:08;;;;;;;4.38;3.40;;;;;;;;;;5476547;26;20046;-66
2024/04/22 11:18:37;;;;;;;2.95;2.65;;;;;;;;;;5475376;26;20378;-66
2024/04/22 11:21:04;;;;;;;4.43;2.90;;;;;;;;;;5474815;26;20038;-66
2024/04/22 11:23:31;;;;;;;6.15;3.38;;;;;;;;;;5469425;26;20027;-65
2024/04/22 11:25:57;;;;;;;7.38;2.95;;;;;;;;;;5469104;26;20030;-66
2024/04/22 11:28:24;;;;;;;6.22;3.35;;;;;;;;;;5475381;26;20030;-66
2024/04/22 11:30:50;;;;;;;6.18;3.22;;;;;;;;;;5471799;26;20026;-66
2024/04/22 11:33:22;;;;;;;12.63;5.35;;;;;;;;;;5466821;26;20493;-68
2024/04/22 11:35:51;;;;;;;18.23;7.47;;;;;;;;;;5464736;26;20035;-67
2024/04/22 11:38:17;;;;;;;6.43;3.28;;;;;;;;;;5436349;26;20034;-67
2024/04/22 11:40:47;;;;;;;3.15;2.67;;;;;;;;;;5439104;26;20026;-66
2024/04/22 11:43:13;;;;;;;5.97;3.80;;;;;;;;;;5472809;26;20022;-67
2024/04/22 11:45:40;;;;;;;7.35;3.58;;;;;;;;;;5433768;26;20031;-66
2024/04/22 11:48:06;;;;;;;4.75;3.00;;;;;;;;;;5435677;26;20024;-67
2024/04/22 11:50:33;;;;;;;7.13;3.10;;;;;;;;;;5483084;26;20018;-66
2024/04/22 11:52:59;;;;;;;3.05;2.30;;;;;;;;;;5482577;26;20042;-66
2024/04/22 11:55:25;;;;;;;3.85;2.90;;;;;;;;;;5484536;26;20038;-67
2024/04/22 11:57:51;;;;;;;2.80;2.50;;;;;;;;;;5477488;26;20035;-66
2024/04/22 12:00:17;;;;;;;3.85;2.95;;;;;;;;;;5473488;26;20026;-65
2024/04/22 12:02:44;;;;;;;3.28;2.80;;;;;;;;;;5466657;26;20022;-67
2024/04/22 12:05:12;;;;;;;4.75;2.80;;;;;;;;;;5431377;26;20035;-66
2024/04/22 12:07:42;;;;;;;4.47;2.43;;;;;;;;;;5477172;26;20038;-67
2024/04/22 12:10:09;;;;;;;5.35;2.97;;;;;;;;;;5479805;26;20263;-67
2024/04/22 12:12:35;;;;;;;3.42;2.75;;;;;;;;;;5475217;26;20022;-67
2024/04/22 12:15:02;;;;;;;6.10;3.30;;;;;;;;;;5480219;26;20026;-67
2024/04/22 12:17:28;;;;;;;4.90;2.97;;;;;;;;;;5477797;26;20026;-67
2024/04/22 12:19:54;;;;;;;3.60;2.38;;;;;;;;;;5476794;26;20023;-67
2024/04/22 12:22:20;;;;;;;3.97;2.80;;;;;;;;;;5474430;26;20018;-66
2024/04/22 12:24:46;;;;;;;3.08;2.17;;;;;;;;;;5472825;26;20022;-66
2024/04/22 12:27:12;;;;;;;3.03;2.03;;;;;;;;;;5482134;26;20026;-66
2024/04/22 12:29:38;;;;;;;3.28;2.35;;;;;;;;;;5476488;26;20030;-67
2024/04/22 12:32:05;;;;;;;3.60;2.38;;;;;;;;;;5480533;26;20373;-67
2024/04/22 12:34:31;;;;;;;2.50;2.30;;;;;;;;;;5466205;26;20042;-67
2024/04/22 12:36:59;;;;;;;2.28;1.95;;;;;;;;;;5469093;26;20019;-67
2024/04/22 12:39:25;;;;;;;2.78;2.10;;;;;;;;;;5462553;26;20037;-67
2024/04/22 12:41:52;;;;;;;3.90;2.40;;;;;;;;;;5467708;26;20027;-67
2024/04/22 12:44:19;;;;;;;4.70;2.47;;;;;;;;;;5469929;26;20026;-67
2024/04/22 12:52:17;;;;;;;2.22;1.80;;;;;;;;;;5480712;26;20045;-66
2024/04/22 12:54:43;;;;;;;2.65;1.80;;;;;;;;;;5452664;26;20037;-67
2024/04/22 12:57:10;;;;;;;2.47;1.85;;;;;;;;;;5460244;26;20038;-67
2024/04/22 12:59:36;;;;;;;1.98;1.65;;;;;;;;;;5477208;26;20038;-67
2024/04/22 13:02:03;;;;;;;2.80;1.92;;;;;;;;;;5464511;26;20146;-67
2024/04/22 13:04:30;;;;;;;5.45;2.00;;;;;;;;;;5470633;26;20038;-67
2024/04/22 13:06:56;;;;;;;2.35;2.00;;;;;;;;;;5466466;26;20521;-67
2024/04/22 13:09:22;;;;;;;2.28;1.85;;;;;;;;;;5463435;26;20030;-67
2024/04/22 13:11:49;;;;;;;4.93;2.13;;;;;;;;;;5473705;26;20022;-67
2024/04/22 13:14:15;;;;;;;2.78;2.00;;;;;;;;;;5444852;26;20102;-66
2024/04/22 13:16:41;;;;;;;2.95;2.30;;;;;;;;;;5475564;26;20026;-68
2024/04/22 13:19:07;;;;;;;2.85;2.10;;;;;;;;;;5477288;26;20026;-67
2024/04/22 13:21:33;;;;;;;2.53;2.08;;;;;;;;;;5473701;26;20131;-67
2024/04/22 13:23:59;;;;;;;5.50;2.20;;;;;;;;;;5436276;26;20070;-67
2024/04/22 13:26:25;;;;;;;4.20;2.00;;;;;;;;;;5472848;26;20454;-68
2024/04/22 13:28:52;;;;;;;3.38;1.95;;;;;;;;;;5441048;26;20154;-68
2024/04/22 13:31:18;;;;;;;2.13;1.92;;;;;;;;;;5469658;26;20041;-66
2024/04/22 13:33:44;;;;;;;2.30;1.90;;;;;;;;;;5465278;26;20038;-67
2024/04/22 13:36:11;;;;;;;4.07;2.05;;;;;;;;;;5476870;26;20397;-68
2024/04/22 13:38:37;;;;;;;3.10;1.90;;;;;;;;;;5470815;26;20022;-67
2024/04/22 13:41:03;;;;;;;3.35;2.00;;;;;;;;;;5463820;26;20030;-68
2024/04/22 13:43:30;;;;;;;2.80;2.17;;;;;;;;;;5470961;26;20034;-68
2024/04/22 13:45:56;;;;;;;2.80;1.98;;;;;;;;;;5482587;26;20026;-67
2024/04/22 13:48:22;;;;;;;3.17;1.95;;;;;;;;;;5435414;26;20145;-68
2024/04/22 13:50:48;;;;;;;3.15;2.03;;;;;;;;;;5479701;26;20034;-67
2024/04/22 13:53:14;;;;;;;3.13;2.10;;;;;;;;;;5431182;26;20026;-66
2024/04/22 13:55:41;;;;;;;3.85;1.67;;;;;;;;;;5469100;26;20030;-67
2024/04/22 13:58:07;;;;;;;2.33;2.00;;;;;;;;;;5455984;26;20026;-67
2024/04/22 14:00:34;;;;;;;3.22;2.15;;;;;;;;;;5464529;26;20030;-67
2024/04/22 14:03:00;;;;;;;2.97;1.88;;;;;;;;;;5432581;26;20149;-67
2024/04/22 14:05:27;;;;;;;3.30;2.00;;;;;;;;;;5478926;26;20033;-69
2024/04/22 14:07:53;;;;;;;3.10;1.75;;;;;;;;;;5419844;26;20034;-67
2024/04/22 14:10:19;;;;;;;2.65;1.77;;;;;;;;;;5468020;26;20022;-67
2024/04/22 14:12:45;;;;;;;2.75;1.60;;;;;;;;;;5471692;26;20218;-68
2024/04/22 14:15:13;;;;;;;5.53;4.00;;;;;;;;;;5475791;26;20026;-69
2024/04/22 14:17:39;;;;;;;3.80;2.17;;;;;;;;;;5471610;26;20517;-67
2024/04/22 14:20:07;;;;;;;2.85;1.80;;;;;;;;;;5472228;26;20386;-67
2024/04/22 14:22:33;;;;;;;2.65;1.85;;;;;;;;;;5440219;26;20052;-67
2024/04/22 14:24:59;;;;;;;2.22;1.80;;;;;;;;;;5459318;26;20354;-68
2024/04/22 14:27:25;;;;;;;2.60;1.98;;;;;;;;;;5462295;26;20035;-68
2024/04/22 14:29:51;;;;;;;2.90;2.28;;;;;;;;;;5413873;26;20038;-68
2024/04/22 14:32:17;;;;;;;4.65;2.45;;;;;;;;;;5463791;26;20343;-67
2024/04/22 14:34:43;;;;;;;4.25;2.95;;;;;;;;;;5465390;26;20030;-67
2024/04/22 14:37:10;;;;;;;4.30;2.75;;;;;;;;;;5469624;26;20149;-68
2024/04/22 14:39:37;;;;;;;2.85;2.22;;;;;;;;;;5466315;26;20030;-68
2024/04/22 14:42:04;;;;;;;4.78;2.72;;;;;;;;;;5437256;26;20038;-68
2024/04/22 14:44:32;;;;;;;4.75;3.85;;;;;;;;;;5470601;26;20034;-68